createdAt,value
2019-05-15T00:00:49.965Z,6.51
2019-05-15T00:01:49.945Z,6.49
2019-05-15T00:02:49.954Z,6.48
2019-05-15T00:03:49.942Z,6.56
2019-05-15T00:04:49.916Z,6.55
2019-05-15T00:05:49.902Z,6.56
2019-05-15T00:06:49.887Z,6.48
2019-05-15T00:07:49.896Z,6.46
2019-05-15T00:08:49.875Z,6.54
2019-05-15T00:09:49.866Z,6.54
2019-05-15T00:10:49.848Z,6.48
2019-05-15T00:11:49.836Z,6.49
2019-05-15T00:12:49.842Z,6.44
2019-05-15T00:13:49.837Z,6.51
2019-05-15T00:14:49.802Z,6.51
2019-05-15T00:15:49.795Z,6.54
2019-05-15T00:16:49.782Z,6.56
2019-05-15T00:17:49.785Z,6.64
2019-05-15T00:18:49.758Z,6.48
2019-05-15T00:19:49.753Z,6.51
2019-05-15T00:20:49.907Z,6.49
2019-05-15T00:21:49.732Z,6.54
2019-05-15T00:22:49.734Z,6.54
2019-05-15T00:23:49.730Z,6.52
2019-05-15T00:24:49.692Z,6.51
2019-05-15T00:25:49.684Z,6.48
2019-05-15T00:26:49.670Z,6.51
2019-05-15T00:27:49.662Z,6.44
2019-05-15T00:28:49.680Z,6.48
2019-05-15T00:29:49.637Z,6.49
2019-05-15T00:30:49.623Z,6.54
2019-05-15T00:31:49.615Z,6.38
2019-05-15T00:32:49.625Z,6.41
2019-05-15T00:33:49.606Z,6.43
2019-05-15T00:34:49.582Z,6.38
2019-05-15T00:35:49.576Z,6.33
2019-05-15T00:36:49.560Z,6.43
2019-05-15T00:37:49.566Z,6.46
2019-05-15T00:38:49.534Z,6.37
2019-05-15T00:39:49.532Z,6.34
2019-05-15T00:40:49.793Z,6.36
2019-05-15T00:41:54.304Z,6.41
2019-05-15T00:42:50.590Z,6.40
2019-05-15T00:43:49.635Z,6.36
2019-05-15T00:44:49.514Z,6.41
2019-05-15T00:45:49.462Z,6.40
2019-05-15T00:46:49.458Z,6.40
2019-05-15T00:47:49.453Z,6.43
2019-05-15T00:48:49.442Z,6.40
2019-05-15T00:49:49.424Z,6.37
2019-05-15T00:50:49.407Z,6.36
2019-05-15T00:51:49.394Z,6.37
2019-05-15T00:52:49.401Z,6.40
2019-05-15T00:53:49.387Z,6.40
2019-05-15T00:54:49.355Z,6.37
2019-05-15T00:55:49.352Z,6.37
2019-05-15T00:56:49.341Z,6.33
2019-05-15T00:57:49.346Z,6.28
2019-05-15T00:58:49.315Z,6.31
2019-05-15T00:59:49.311Z,6.37
2019-05-15T01:00:49.300Z,6.34
2019-05-15T01:01:49.288Z,6.22
2019-05-15T01:02:49.290Z,6.15
2019-05-15T01:03:49.500Z,6.14
2019-05-15T01:04:49.317Z,6.17
2019-05-15T01:05:49.259Z,6.17
2019-05-15T01:06:52.560Z,6.06
2019-05-15T01:07:49.232Z,6.06
2019-05-15T01:08:49.209Z,6.08
2019-05-15T01:09:49.202Z,6.06
2019-05-15T01:10:49.217Z,5.97
2019-05-15T01:11:49.173Z,5.99
2019-05-15T01:12:49.164Z,5.96
2019-05-15T01:13:49.180Z,5.90
2019-05-15T01:14:49.165Z,5.83
2019-05-15T01:15:49.213Z,5.83
2019-05-15T01:16:49.187Z,5.90
2019-05-15T01:17:49.281Z,5.91
2019-05-15T01:18:51.878Z,5.91
2019-05-15T01:19:49.083Z,5.75
2019-05-15T01:20:49.848Z,5.74
2019-05-15T01:21:49.096Z,5.78
2019-05-15T01:22:49.067Z,5.74
2019-05-15T01:23:49.055Z,5.76
2019-05-15T01:24:49.034Z,5.74
2019-05-15T01:25:49.107Z,5.71
2019-05-15T01:26:49.343Z,5.83
2019-05-15T01:27:49.123Z,5.75
2019-05-15T01:28:49.619Z,5.82
2019-05-15T01:29:49.495Z,5.75
2019-05-15T01:30:48.960Z,5.72
2019-05-15T01:31:49.151Z,5.76
2019-05-15T01:32:48.942Z,5.74
2019-05-15T01:33:48.947Z,5.71
2019-05-15T01:34:49.234Z,5.79
2019-05-15T01:35:49.033Z,5.71
2019-05-15T01:36:49.141Z,5.71
2019-05-15T01:37:48.881Z,5.72
2019-05-15T01:38:48.896Z,5.64
2019-05-15T01:39:48.859Z,5.71
2019-05-15T01:40:48.854Z,5.64
2019-05-15T01:41:49.578Z,5.65
2019-05-15T01:42:49.980Z,5.61
2019-05-15T01:43:49.190Z,5.65
2019-05-15T01:44:48.806Z,5.60
2019-05-15T01:45:48.795Z,5.65
2019-05-15T01:46:48.784Z,5.65
2019-05-15T01:47:48.777Z,5.71
2019-05-15T01:48:49.455Z,5.67
2019-05-15T01:49:49.172Z,5.65
2019-05-15T01:50:49.336Z,5.71
2019-05-15T01:51:48.727Z,5.68
2019-05-15T01:52:48.722Z,5.61
2019-05-15T01:53:48.791Z,5.71
2019-05-15T01:54:49.031Z,5.71
2019-05-15T01:55:48.683Z,5.67
2019-05-15T01:56:49.510Z,5.65
2019-05-15T01:57:48.798Z,5.75
2019-05-15T01:58:48.888Z,5.71
2019-05-15T01:59:57.311Z,5.68
2019-05-15T02:00:49.632Z,5.71
2019-05-15T02:01:48.795Z,5.72
2019-05-15T02:02:48.608Z,5.78
2019-05-15T02:03:49.291Z,5.75
2019-05-15T02:04:48.828Z,5.74
2019-05-15T02:05:48.572Z,5.57
2019-05-15T02:06:48.564Z,5.74
2019-05-15T02:07:48.552Z,5.61
2019-05-15T02:08:49.764Z,5.71
2019-05-15T02:09:49.227Z,5.61
2019-05-15T02:10:49.324Z,5.65
2019-05-15T02:11:48.959Z,5.67
2019-05-15T02:12:48.508Z,5.74
2019-05-15T02:13:48.487Z,5.71
2019-05-15T02:14:48.668Z,5.67
2019-05-15T02:15:48.473Z,5.68
2019-05-15T02:16:48.592Z,5.56
2019-05-15T02:17:48.447Z,5.60
2019-05-15T02:18:48.927Z,5.72
2019-05-15T02:19:48.648Z,5.67
2019-05-15T02:20:49.330Z,5.68
2019-05-15T02:21:48.736Z,5.64
2019-05-15T02:22:48.616Z,5.61
2019-05-15T02:23:48.387Z,5.63
2019-05-15T02:24:48.394Z,5.56
2019-05-15T02:25:48.356Z,5.63
2019-05-15T02:26:48.424Z,5.61
2019-05-15T02:27:48.338Z,5.57
2019-05-15T02:28:48.931Z,5.58
2019-05-15T02:29:49.266Z,5.57
2019-05-15T02:30:50.607Z,5.61
2019-05-15T02:31:50.324Z,5.60
2019-05-15T02:32:50.071Z,5.56
2019-05-15T02:33:49.806Z,5.63
2019-05-15T02:34:50.011Z,5.61
2019-05-15T02:35:50.065Z,5.61
2019-05-15T02:36:49.283Z,5.53
2019-05-15T02:37:48.877Z,5.51
2019-05-15T02:38:48.751Z,5.48
2019-05-15T02:39:49.522Z,5.46
2019-05-15T02:40:49.440Z,5.48
2019-05-15T02:41:49.188Z,5.54
2019-05-15T02:42:49.316Z,5.45
2019-05-15T02:43:50.086Z,5.53
2019-05-15T02:44:50.044Z,5.48
2019-05-15T02:45:50.810Z,5.46
2019-05-15T02:46:50.027Z,5.43
2019-05-15T02:47:48.830Z,5.45
2019-05-15T02:48:48.880Z,5.48
2019-05-15T02:49:48.724Z,5.48
2019-05-15T02:50:50.046Z,5.49
2019-05-15T02:51:49.419Z,5.51
2019-05-15T02:52:49.771Z,5.46
2019-05-15T02:53:50.041Z,5.49
2019-05-15T02:54:49.857Z,5.46
2019-05-15T02:55:49.555Z,5.45
2019-05-15T02:56:49.464Z,5.49
2019-05-15T02:57:49.483Z,5.35
2019-05-15T02:58:49.110Z,5.38
2019-05-15T02:59:49.950Z,5.36
2019-05-15T03:00:52.877Z,5.36
2019-05-15T03:01:49.478Z,5.36
2019-05-15T03:02:49.842Z,5.33
2019-05-15T03:03:49.811Z,5.31
2019-05-15T03:04:48.525Z,5.25
2019-05-15T03:05:49.846Z,5.35
2019-05-15T03:06:49.573Z,5.18
2019-05-15T03:07:49.338Z,5.27
2019-05-15T03:08:49.476Z,5.28
2019-05-15T03:09:49.658Z,5.27
2019-05-15T03:10:49.737Z,5.25
2019-05-15T03:11:49.420Z,5.24
2019-05-15T03:12:49.524Z,5.18
2019-05-15T03:13:50.410Z,5.25
2019-05-15T03:14:49.073Z,5.13
2019-05-15T03:15:48.962Z,5.15
2019-05-15T03:16:49.734Z,5.20
2019-05-15T03:17:49.519Z,5.12
2019-05-15T03:18:50.627Z,5.13
2019-05-15T03:19:49.794Z,5.10
2019-05-15T03:20:50.130Z,5.10
2019-05-15T03:21:49.741Z,5.15
2019-05-15T03:22:49.275Z,5.07
2019-05-15T03:23:50.733Z,5.06
2019-05-15T03:24:50.238Z,5.15
2019-05-15T03:25:49.029Z,5.06
2019-05-15T03:26:49.664Z,5.09
2019-05-15T03:27:49.970Z,5.07
2019-05-15T03:28:49.579Z,5.06
2019-05-15T03:29:49.379Z,5.04
2019-05-15T03:31:22.573Z,5.07
2019-05-15T03:32:05.202Z,4.94
2019-05-15T03:32:55.805Z,4.94
2019-05-15T03:33:53.665Z,4.99
2019-05-15T03:34:55.636Z,4.96
2019-05-15T03:35:53.671Z,4.97
2019-05-15T03:36:53.135Z,4.91
2019-05-15T03:37:49.185Z,4.92
2019-05-15T03:38:49.911Z,4.86
2019-05-15T03:39:51.609Z,4.89
2019-05-15T03:40:49.801Z,4.91
2019-05-15T03:41:49.719Z,4.89
2019-05-15T03:42:49.671Z,4.91
2019-05-15T03:43:49.685Z,4.86
2019-05-15T03:44:50.152Z,4.91
2019-05-15T03:45:49.243Z,4.92
2019-05-15T03:46:49.194Z,4.91
2019-05-15T03:47:49.170Z,4.91
2019-05-15T03:48:48.741Z,4.97
2019-05-15T03:49:49.437Z,4.89
2019-05-15T03:50:48.845Z,4.96
2019-05-15T03:51:50.014Z,4.89
2019-05-15T03:52:49.685Z,5.00
2019-05-15T03:53:49.816Z,5.00
2019-05-15T03:54:49.513Z,5.06
2019-05-15T03:55:48.940Z,5.04
2019-05-15T03:56:49.931Z,5.07
2019-05-15T03:57:49.930Z,5.09
2019-05-15T03:58:49.387Z,5.09
2019-05-15T03:59:48.992Z,5.03
2019-05-15T04:00:49.816Z,5.10
2019-05-15T04:01:49.686Z,5.12
2019-05-15T04:02:48.801Z,5.15
2019-05-15T04:03:49.587Z,5.21
2019-05-15T04:04:50.180Z,5.10
2019-05-15T04:05:49.457Z,5.13
2019-05-15T04:06:49.860Z,5.18
2019-05-15T04:07:49.603Z,5.25
2019-05-15T04:08:49.580Z,5.28
2019-05-15T04:09:49.410Z,5.24
2019-05-15T04:10:48.785Z,5.21
2019-05-15T04:11:49.754Z,5.28
2019-05-15T04:12:49.318Z,5.33
2019-05-15T04:13:49.952Z,5.39
2019-05-15T04:14:49.947Z,5.40
2019-05-15T04:15:50.044Z,5.53
2019-05-15T04:16:49.645Z,5.48
2019-05-15T04:17:49.290Z,5.58
2019-05-15T04:18:49.034Z,5.56
2019-05-15T04:19:49.648Z,5.60
2019-05-15T04:20:49.387Z,5.57
2019-05-15T04:21:49.370Z,5.72
2019-05-15T04:22:49.196Z,5.68
2019-05-15T04:23:49.706Z,5.64
2019-05-15T04:24:49.375Z,5.68
2019-05-15T04:25:49.409Z,5.72
2019-05-15T04:26:48.676Z,5.75
2019-05-15T04:27:49.296Z,5.68
2019-05-15T04:28:49.411Z,5.75
2019-05-15T04:29:49.233Z,5.81
2019-05-15T04:30:49.561Z,5.79
2019-05-15T04:31:56.410Z,5.78
2019-05-15T04:32:48.777Z,5.79
2019-05-15T04:33:49.153Z,5.78
2019-05-15T04:34:48.937Z,5.83
2019-05-15T04:35:49.636Z,5.93
2019-05-15T04:36:49.460Z,6.00
2019-05-15T04:37:49.495Z,5.99
2019-05-15T04:38:49.755Z,6.04
2019-05-15T04:39:49.105Z,6.06
2019-05-15T04:40:49.860Z,6.08
2019-05-15T04:41:49.735Z,6.09
2019-05-15T04:42:49.603Z,6.06
2019-05-15T04:43:49.364Z,6.09
2019-05-15T04:44:49.512Z,6.14
2019-05-15T04:45:49.694Z,6.14
2019-05-15T04:46:49.525Z,6.19
2019-05-15T04:47:49.658Z,6.22
2019-05-15T04:48:49.880Z,6.14
2019-05-15T04:49:50.341Z,6.14
2019-05-15T04:50:49.460Z,6.21
2019-05-15T04:51:49.755Z,6.17
2019-05-15T04:52:49.922Z,6.27
2019-05-15T04:53:49.900Z,6.27
2019-05-15T04:54:49.311Z,6.22
2019-05-15T04:55:49.212Z,6.21
2019-05-15T04:56:48.875Z,6.31
2019-05-15T04:57:49.931Z,6.28
2019-05-15T04:58:50.273Z,6.30
2019-05-15T04:59:49.490Z,6.36
2019-05-15T05:00:49.489Z,6.30
2019-05-15T05:01:46.628Z,6.30
2019-05-15T05:02:49.486Z,6.37
2019-05-15T05:03:49.378Z,6.40
2019-05-15T05:04:49.197Z,6.40
2019-05-15T05:05:49.552Z,6.28
2019-05-15T05:06:49.285Z,6.38
2019-05-15T05:07:49.060Z,6.40
2019-05-15T05:08:49.094Z,6.41
2019-05-15T05:09:48.900Z,6.46
2019-05-15T05:10:48.855Z,6.55
2019-05-15T05:11:48.832Z,6.56
2019-05-15T05:12:50.554Z,6.61
2019-05-15T05:13:48.468Z,6.52
2019-05-15T05:14:48.429Z,6.61
2019-05-15T05:15:49.571Z,6.69
2019-05-15T05:16:48.847Z,6.74
2019-05-15T05:17:48.895Z,6.74
2019-05-15T05:18:48.886Z,6.74
2019-05-15T05:19:47.856Z,6.79
2019-05-15T05:20:48.442Z,6.84
2019-05-15T05:21:47.943Z,6.91
2019-05-15T05:22:48.325Z,6.84
2019-05-15T05:23:48.423Z,6.89
2019-05-15T05:24:47.825Z,6.92
2019-05-15T05:25:48.824Z,6.97
2019-05-15T05:26:48.865Z,7.05
2019-05-15T05:27:48.534Z,7.05
2019-05-15T05:28:48.430Z,7.13
2019-05-15T05:29:48.059Z,7.25
2019-05-15T05:30:48.245Z,7.21
2019-05-15T05:31:49.009Z,7.20
2019-05-15T05:32:48.625Z,7.24
2019-05-15T05:33:48.494Z,7.31
2019-05-15T05:34:48.262Z,7.32
2019-05-15T05:35:48.653Z,7.42
2019-05-15T05:36:48.008Z,7.39
2019-05-15T05:37:48.078Z,7.40
2019-05-15T05:38:46.216Z,7.58
2019-05-15T05:39:48.212Z,7.50
2019-05-15T05:40:46.195Z,7.52
2019-05-15T05:41:48.553Z,7.53
2019-05-15T05:42:47.973Z,7.58
2019-05-15T05:43:48.585Z,7.58
2019-05-15T05:44:46.148Z,7.60
2019-05-15T05:45:46.141Z,7.67
2019-05-15T05:46:46.128Z,7.69
2019-05-15T05:47:48.333Z,7.75
2019-05-15T05:48:46.123Z,7.77
2019-05-15T05:49:46.095Z,7.80
2019-05-15T05:50:46.090Z,7.80
2019-05-15T05:51:48.097Z,7.85
2019-05-15T05:52:46.063Z,7.90
2019-05-15T05:53:47.992Z,7.93
2019-05-15T05:54:46.041Z,7.98
2019-05-15T05:55:46.028Z,8.02
2019-05-15T05:56:48.121Z,7.97
2019-05-15T05:57:46.004Z,8.05
2019-05-15T05:58:46.010Z,8.07
2019-05-15T05:59:45.986Z,8.05
2019-05-15T06:00:48.614Z,8.05
2019-05-15T06:01:48.317Z,8.07
2019-05-15T06:02:48.796Z,8.08
2019-05-15T06:03:49.021Z,8.20
2019-05-15T06:04:47.841Z,8.25
2019-05-15T06:05:45.930Z,8.20
2019-05-15T06:06:45.928Z,8.20
2019-05-15T06:07:45.969Z,8.26
2019-05-15T06:08:48.045Z,8.26
2019-05-15T06:09:45.887Z,8.30
2019-05-15T06:10:45.865Z,8.33
2019-05-15T06:11:45.860Z,8.29
2019-05-15T06:12:45.842Z,8.37
2019-05-15T06:13:45.851Z,8.45
2019-05-15T06:14:45.821Z,8.58
2019-05-15T06:15:45.805Z,8.53
2019-05-15T06:16:47.993Z,8.63
2019-05-15T06:17:47.991Z,8.68
2019-05-15T06:18:45.800Z,8.79
2019-05-15T06:19:48.040Z,8.71
2019-05-15T06:20:45.753Z,8.77
2019-05-15T06:21:54.716Z,8.77
2019-05-15T06:22:47.941Z,8.89
2019-05-15T06:23:48.489Z,8.95
2019-05-15T06:24:48.536Z,8.99
2019-05-15T06:25:48.400Z,9.15
2019-05-15T06:26:47.981Z,9.15
2019-05-15T06:27:48.042Z,9.33
2019-05-15T06:28:45.670Z,9.35
2019-05-15T06:29:45.689Z,9.46
2019-05-15T06:30:45.638Z,9.39
2019-05-15T06:31:45.635Z,9.47
2019-05-15T06:33:01.911Z,9.51
2019-05-15T06:33:48.864Z,9.60
2019-05-15T06:34:45.617Z,9.64
2019-05-15T06:35:45.588Z,9.65
2019-05-15T06:36:45.572Z,9.69
2019-05-15T06:37:45.567Z,9.78
2019-05-15T06:38:48.160Z,9.75
2019-05-15T06:39:45.564Z,9.78
2019-05-15T06:40:45.528Z,9.79
2019-05-15T06:41:48.089Z,9.69
2019-05-15T06:42:48.250Z,9.72
2019-05-15T06:43:45.494Z,9.65
2019-05-15T06:44:45.510Z,9.61
2019-05-15T06:45:45.475Z,9.54
2019-05-15T06:46:45.465Z,9.61
2019-05-15T06:47:45.460Z,9.57
2019-05-15T06:48:45.441Z,9.57
2019-05-15T06:49:45.455Z,9.68
2019-05-15T06:50:45.415Z,9.64
2019-05-15T06:51:45.405Z,9.78
2019-05-15T06:52:45.397Z,9.75
2019-05-15T06:53:45.403Z,9.74
2019-05-15T06:54:45.396Z,9.72
2019-05-15T06:55:45.359Z,9.79
2019-05-15T06:56:45.353Z,9.87
2019-05-15T06:57:45.342Z,9.87
2019-05-15T06:58:45.330Z,9.90
2019-05-15T06:59:45.338Z,9.94
2019-05-15T07:00:45.309Z,10.11
2019-05-15T07:01:47.960Z,10.09
2019-05-15T07:02:45.288Z,10.09
2019-05-15T07:03:45.278Z,10.09
2019-05-15T07:04:45.287Z,10.17
2019-05-15T07:05:45.253Z,10.17
2019-05-15T07:06:45.242Z,10.12
2019-05-15T07:07:45.243Z,10.18
2019-05-15T07:08:45.220Z,10.20
2019-05-15T07:09:45.230Z,10.25
2019-05-15T07:10:45.196Z,10.33
2019-05-15T07:11:45.200Z,10.41
2019-05-15T07:12:48.430Z,10.44
2019-05-15T07:13:48.474Z,10.55
2019-05-15T07:14:45.178Z,10.45
2019-05-15T07:15:45.137Z,10.61
2019-05-15T07:16:45.132Z,10.73
2019-05-15T07:17:45.116Z,10.78
2019-05-15T07:18:45.115Z,10.99
2019-05-15T07:19:45.120Z,11.11
2019-05-15T07:20:45.089Z,11.24
2019-05-15T07:21:45.080Z,11.32
2019-05-15T07:22:45.072Z,11.55
2019-05-15T07:23:45.054Z,11.58
2019-05-15T07:24:45.070Z,11.76
2019-05-15T07:25:45.032Z,11.70
2019-05-15T07:26:45.023Z,11.70
2019-05-15T07:27:45.007Z,11.70
2019-05-15T07:28:45.016Z,11.67
2019-05-15T07:29:44.998Z,11.64
2019-05-15T07:30:44.989Z,11.64
2019-05-15T07:31:44.960Z,11.62
2019-05-15T07:32:44.959Z,11.54
2019-05-15T07:33:44.985Z,11.57
2019-05-15T07:34:44.958Z,11.49
2019-05-15T07:35:44.928Z,11.55
2019-05-15T07:36:44.909Z,11.49
2019-05-15T07:37:44.907Z,11.52
2019-05-15T07:38:44.887Z,11.57
2019-05-15T07:39:44.894Z,11.65
2019-05-15T07:40:44.895Z,11.80
2019-05-15T07:41:44.860Z,11.86
2019-05-15T07:42:44.842Z,12.02
2019-05-15T07:43:44.828Z,12.05
2019-05-15T07:44:44.831Z,12.07
2019-05-15T07:45:44.953Z,12.05
2019-05-15T07:46:44.808Z,12.12
2019-05-15T07:47:44.791Z,12.05
2019-05-15T07:48:44.790Z,12.02
2019-05-15T07:49:44.803Z,12.04
2019-05-15T07:50:44.758Z,12.09
2019-05-15T07:51:44.743Z,12.13
2019-05-15T07:52:44.735Z,12.09
2019-05-15T07:53:44.724Z,12.10
2019-05-15T07:54:44.722Z,12.07
2019-05-15T07:55:44.707Z,12.07
2019-05-15T07:56:44.698Z,12.14
2019-05-15T07:57:44.679Z,12.07
2019-05-15T07:58:44.678Z,12.04
2019-05-15T07:59:44.679Z,12.14
2019-05-15T08:00:44.643Z,12.12
2019-05-15T08:01:44.638Z,12.21
2019-05-15T08:02:44.626Z,12.28
2019-05-15T08:03:58.516Z,12.42
2019-05-15T08:04:45.643Z,12.37
2019-05-15T08:05:58.043Z,12.41
2019-05-15T08:06:45.577Z,12.53
2019-05-15T08:07:44.565Z,12.57
2019-05-15T08:08:44.554Z,12.57
2019-05-15T08:09:44.558Z,12.65
2019-05-15T08:10:44.564Z,12.71
2019-05-15T08:11:44.519Z,12.89
2019-05-15T08:12:44.510Z,12.83
2019-05-15T08:13:44.492Z,12.85
2019-05-15T08:14:47.351Z,12.96
2019-05-15T08:15:45.487Z,12.93
2019-05-15T08:16:44.464Z,12.92
2019-05-15T08:18:45.444Z,12.79
2019-05-15T08:19:44.438Z,12.82
2019-05-15T08:20:44.435Z,12.89
2019-05-15T08:21:44.400Z,12.78
2019-05-15T08:22:45.969Z,12.77
2019-05-15T08:23:44.390Z,12.78
2019-05-15T08:24:44.371Z,12.75
2019-05-15T08:25:44.376Z,12.87
2019-05-15T08:26:05.713Z,12.86
2019-05-15T08:26:45.637Z,12.95
2019-05-15T08:27:44.345Z,13.07
2019-05-15T08:28:44.333Z,13.05
2019-05-15T08:29:44.316Z,13.14
2019-05-15T08:30:44.337Z,13.20
2019-05-15T08:31:44.304Z,13.20
2019-05-15T08:32:44.311Z,13.32
2019-05-15T08:33:44.269Z,13.42
2019-05-15T08:34:44.261Z,13.46
2019-05-15T08:35:48.003Z,13.59
2019-05-15T08:36:45.247Z,13.77
2019-05-15T08:37:44.238Z,13.79
2019-05-15T08:38:44.212Z,13.73
2019-05-15T08:39:44.205Z,13.88
2019-05-15T08:40:44.222Z,13.96
2019-05-15T08:41:44.197Z,14.00
2019-05-15T08:42:44.172Z,14.03
2019-05-15T08:43:44.157Z,14.02
2019-05-15T08:44:44.154Z,14.04
2019-05-15T08:45:44.175Z,14.06
2019-05-15T08:46:44.443Z,13.88
2019-05-15T08:47:44.109Z,13.87
2019-05-15T08:48:44.124Z,14.07
2019-05-15T08:49:44.124Z,14.22
2019-05-15T08:50:44.216Z,14.35
2019-05-15T08:51:44.070Z,14.47
2019-05-15T08:52:44.057Z,14.45
2019-05-15T08:53:44.054Z,14.45
2019-05-15T08:54:44.048Z,14.50
2019-05-15T08:55:44.048Z,14.62
2019-05-15T08:56:44.012Z,14.69
2019-05-15T08:57:44.009Z,14.58
2019-05-15T08:58:43.997Z,14.78
2019-05-15T08:59:43.983Z,14.91
2019-05-15T09:00:44.300Z,14.88
2019-05-15T09:01:43.952Z,14.96
2019-05-15T09:02:43.944Z,14.96
2019-05-15T09:03:43.938Z,15.02
2019-05-15T09:04:43.930Z,15.01
2019-05-15T09:05:43.942Z,15.10
2019-05-15T09:06:43.943Z,15.14
2019-05-15T09:07:43.899Z,15.07
2019-05-15T09:08:43.890Z,15.06
2019-05-15T09:09:43.864Z,15.16
2019-05-15T09:10:43.880Z,15.06
2019-05-15T09:11:43.849Z,15.06
2019-05-15T09:12:43.844Z,15.03
2019-05-15T09:13:44.508Z,14.91
2019-05-15T09:14:43.817Z,14.75
2019-05-15T09:15:43.823Z,14.52
2019-05-15T09:16:43.790Z,14.60
2019-05-15T09:17:43.784Z,14.57
2019-05-15T09:18:43.775Z,14.73
2019-05-15T09:19:43.756Z,14.61
2019-05-15T09:20:43.764Z,14.46
2019-05-15T09:21:43.734Z,14.21
2019-05-15T09:22:43.727Z,14.22
2019-05-15T09:23:43.714Z,14.25
2019-05-15T09:24:43.706Z,14.51
2019-05-15T09:25:43.718Z,14.64
2019-05-15T09:26:43.684Z,14.72
2019-05-15T09:27:43.674Z,14.83
2019-05-15T09:28:43.659Z,14.96
2019-05-15T09:29:43.644Z,14.96
2019-05-15T09:30:43.667Z,15.10
2019-05-15T09:31:43.634Z,15.19
2019-05-15T09:32:43.612Z,15.32
2019-05-15T09:33:43.630Z,15.28
2019-05-15T09:34:50.557Z,15.35
2019-05-15T09:35:44.599Z,15.36
2019-05-15T09:36:45.220Z,15.47
2019-05-15T09:37:43.555Z,15.36
2019-05-15T09:38:43.542Z,15.35
2019-05-15T09:39:43.533Z,15.14
2019-05-15T09:40:46.571Z,15.14
2019-05-15T09:41:44.542Z,14.86
2019-05-15T09:42:43.500Z,14.70
2019-05-15T09:43:43.492Z,14.54
2019-05-15T09:44:43.491Z,14.45
2019-05-15T09:45:43.494Z,14.36
2019-05-15T09:46:43.479Z,14.29
2019-05-15T09:47:43.449Z,14.29
2019-05-15T09:48:43.442Z,14.27
2019-05-15T09:49:43.426Z,14.22
2019-05-15T09:50:43.424Z,14.09
2019-05-15T09:51:43.427Z,14.07
2019-05-15T09:52:43.398Z,14.04
2019-05-15T09:53:43.376Z,14.12
2019-05-15T09:54:43.365Z,14.09
2019-05-15T09:55:43.361Z,14.12
2019-05-15T09:56:43.368Z,14.17
2019-05-15T09:57:43.344Z,14.21
2019-05-15T09:58:43.330Z,14.36
2019-05-15T09:59:43.329Z,14.39
2019-05-15T10:00:43.305Z,14.55
2019-05-15T10:01:43.308Z,14.61
2019-05-15T10:02:43.281Z,14.57
2019-05-15T10:03:44.545Z,14.65
2019-05-15T10:04:43.256Z,14.83
2019-05-15T10:05:43.246Z,14.91
2019-05-15T10:06:43.250Z,14.99
2019-05-15T10:07:43.226Z,15.09
2019-05-15T10:08:43.205Z,15.20
2019-05-15T10:09:43.199Z,15.21
2019-05-15T10:10:43.188Z,15.21
2019-05-15T10:11:43.201Z,15.19
2019-05-15T10:12:43.179Z,15.23
2019-05-15T10:13:43.156Z,15.17
2019-05-15T10:14:43.140Z,15.17
2019-05-15T10:15:43.130Z,15.14
2019-05-15T10:16:43.139Z,15.19
2019-05-15T10:17:43.134Z,15.23
2019-05-15T10:18:43.108Z,15.20
2019-05-15T10:19:43.090Z,15.19
2019-05-15T10:20:43.080Z,15.03
2019-05-15T10:21:43.149Z,14.91
2019-05-15T10:22:43.055Z,14.81
2019-05-15T10:23:43.052Z,14.75
2019-05-15T10:24:43.035Z,14.73
2019-05-15T10:25:43.021Z,14.73
2019-05-15T10:26:43.046Z,14.65
2019-05-15T10:27:43.002Z,14.62
2019-05-15T10:28:42.999Z,14.62
2019-05-15T10:29:42.980Z,14.55
2019-05-15T10:30:42.960Z,14.54
2019-05-15T10:31:42.972Z,14.58
2019-05-15T10:32:42.942Z,14.43
2019-05-15T10:33:42.941Z,14.33
2019-05-15T10:34:42.940Z,14.25
2019-05-15T10:35:42.910Z,14.12
2019-05-15T10:36:42.926Z,14.00
2019-05-15T10:37:42.883Z,14.02
2019-05-15T10:38:42.921Z,14.06
2019-05-15T10:39:42.858Z,13.96
2019-05-15T10:40:58.647Z,13.88
2019-05-15T10:41:43.864Z,14.02
2019-05-15T10:42:42.836Z,14.03
2019-05-15T10:43:45.777Z,14.04
2019-05-15T10:44:43.808Z,14.04
2019-05-15T10:45:43.481Z,13.97
2019-05-15T10:46:42.802Z,14.00
2019-05-15T10:47:42.773Z,14.02
2019-05-15T10:48:42.762Z,14.12
2019-05-15T10:49:42.750Z,14.04
2019-05-15T10:50:42.741Z,14.02
2019-05-15T10:51:42.764Z,14.04
2019-05-15T10:52:42.741Z,14.06
2019-05-15T10:53:42.704Z,14.04
2019-05-15T10:54:42.699Z,14.10
2019-05-15T10:55:42.713Z,14.02
2019-05-15T10:56:42.674Z,13.96
2019-05-15T10:57:44.591Z,13.99
2019-05-15T10:58:42.656Z,13.92
2019-05-15T10:59:42.642Z,13.91
2019-05-15T11:00:42.633Z,13.92
2019-05-15T11:01:42.617Z,13.91
2019-05-15T11:02:42.627Z,13.89
2019-05-15T11:03:42.593Z,13.89
2019-05-15T11:04:42.585Z,13.81
2019-05-15T11:05:45.737Z,13.78
2019-05-15T11:06:42.562Z,13.78
2019-05-15T11:07:42.576Z,13.73
2019-05-15T11:08:42.545Z,13.75
2019-05-15T11:09:42.530Z,13.66
2019-05-15T11:10:42.516Z,13.75
2019-05-15T11:11:42.508Z,13.78
2019-05-15T11:12:42.518Z,13.77
2019-05-15T11:13:42.498Z,13.81
2019-05-15T11:14:42.480Z,13.84
2019-05-15T11:15:42.763Z,13.84
2019-05-15T11:16:42.450Z,13.99
2019-05-15T11:17:42.460Z,14.04
2019-05-15T11:18:42.546Z,14.02
2019-05-15T11:19:42.634Z,14.04
2019-05-15T11:20:42.404Z,14.03
2019-05-15T11:21:43.610Z,14.07
2019-05-15T11:22:42.980Z,14.14
2019-05-15T11:23:42.795Z,14.27
2019-05-15T11:24:42.367Z,14.27
2019-05-15T11:25:42.356Z,14.22
2019-05-15T11:26:42.348Z,14.24
2019-05-15T11:27:42.348Z,14.35
2019-05-15T11:28:42.325Z,14.37
2019-05-15T11:29:42.305Z,14.29
2019-05-15T11:30:42.301Z,14.32
2019-05-15T11:31:42.285Z,14.35
2019-05-15T11:32:42.305Z,14.29
2019-05-15T11:33:42.264Z,14.32
2019-05-15T11:34:42.258Z,14.20
2019-05-15T11:35:56.983Z,14.24
2019-05-15T11:36:43.240Z,14.10
2019-05-15T11:37:45.838Z,14.10
2019-05-15T11:38:42.210Z,14.09
2019-05-15T11:39:46.105Z,14.02
2019-05-15T11:40:42.177Z,14.02
2019-05-15T11:41:42.175Z,13.97
2019-05-15T11:42:42.182Z,13.97
2019-05-15T11:43:42.148Z,13.99
2019-05-15T11:44:42.133Z,14.06
2019-05-15T11:45:42.123Z,14.00
2019-05-15T11:46:42.114Z,14.03
2019-05-15T11:47:42.121Z,14.09
2019-05-15T11:48:42.088Z,14.17
2019-05-15T11:49:42.086Z,14.15
2019-05-15T11:50:42.074Z,14.21
2019-05-15T11:51:42.066Z,14.25
2019-05-15T11:52:42.078Z,14.33
2019-05-15T11:53:42.045Z,14.35
2019-05-15T11:54:42.026Z,14.47
2019-05-15T11:55:42.017Z,14.57
2019-05-15T11:56:42.002Z,14.60
2019-05-15T11:57:46.993Z,14.62
2019-05-15T11:58:42.979Z,14.69
2019-05-15T11:59:45.226Z,14.75
2019-05-15T12:00:41.965Z,14.80
2019-05-15T12:01:41.945Z,14.86
2019-05-15T12:02:41.971Z,14.94
2019-05-15T12:03:41.926Z,15.06
2019-05-15T12:04:41.914Z,14.99
2019-05-15T12:05:41.907Z,15.10
2019-05-15T12:06:41.900Z,15.20
2019-05-15T12:07:41.937Z,15.29
2019-05-15T12:08:41.868Z,15.43
2019-05-15T12:09:41.857Z,15.46
2019-05-15T12:10:41.843Z,15.71
2019-05-15T12:11:41.836Z,15.80
2019-05-15T12:12:41.857Z,15.93
2019-05-15T12:13:41.815Z,16.07
2019-05-15T12:14:41.806Z,16.01
2019-05-15T12:15:41.790Z,16.07
2019-05-15T12:16:41.838Z,16.04
2019-05-15T12:17:41.767Z,16.08
2019-05-15T12:18:41.755Z,16.00
2019-05-15T12:19:42.964Z,15.87
2019-05-15T12:20:41.739Z,15.93
2019-05-15T12:21:41.740Z,15.76
2019-05-15T12:22:41.736Z,15.71
2019-05-15T12:23:41.701Z,15.51
2019-05-15T12:24:41.686Z,15.47
2019-05-15T12:25:41.689Z,15.31
2019-05-15T12:26:41.687Z,15.31
2019-05-15T12:27:41.685Z,15.27
2019-05-15T12:28:41.646Z,15.25
2019-05-15T12:29:41.640Z,15.29
2019-05-15T12:30:41.629Z,15.29
2019-05-15T12:31:41.642Z,15.20
2019-05-15T12:32:41.639Z,15.20
2019-05-15T12:33:41.616Z,15.17
2019-05-15T12:34:41.595Z,15.16
2019-05-15T12:35:41.564Z,15.20
2019-05-15T12:36:51.727Z,15.29
2019-05-15T12:37:42.569Z,15.46
2019-05-15T12:38:41.536Z,15.44
2019-05-15T12:39:41.529Z,15.65
2019-05-15T12:59:44.637Z,14.68
2019-05-15T13:00:41.292Z,14.61
2019-05-15T13:01:41.280Z,14.60
2019-05-15T13:02:41.304Z,14.50
2019-05-15T13:03:41.278Z,14.36
2019-05-15T13:04:41.246Z,14.33
2019-05-15T13:05:41.231Z,14.25
2019-05-15T13:06:49.427Z,14.25
2019-05-15T13:07:42.211Z,14.12
2019-05-15T13:08:41.218Z,14.06
2019-05-15T13:09:41.182Z,14.07
2019-05-15T13:10:41.182Z,14.04
2019-05-15T13:11:41.168Z,14.09
2019-05-15T13:12:55.603Z,14.04
2019-05-15T13:13:42.170Z,14.07
2019-05-15T13:14:41.128Z,14.02
2019-05-15T13:15:41.544Z,13.99
2019-05-15T13:16:41.106Z,13.97
2019-05-15T13:17:41.107Z,13.97
2019-05-15T13:18:41.109Z,13.88
2019-05-15T13:19:41.079Z,13.84
2019-05-15T13:20:41.069Z,13.85
2019-05-15T13:21:41.056Z,13.82
2019-05-15T13:22:41.051Z,13.84
2019-05-15T13:23:41.054Z,13.77
2019-05-15T13:24:41.026Z,13.75
2019-05-15T13:25:41.022Z,13.75